Terminal Aerodrome Forecast
Issued by NWS Wakefield, VA

Home | Current Version | Previous Version | Text Only | Print | Product List | Glossary On
Versions: 1 2 3 4 5 6 7 8 9 10 11 12 13 14 15 16 17 18 19 20 21
000
FTUS41 KAKQ 220500
TAFSBY
TAF
KSBY 220532Z 2206/2306 25010KT P6SM SCT080
     FM220700 31008KT P6SM BKN100
     FM221400 31012G20KT P6SM SCT050
     FM222200 34005KT P6SM SKC=

USA.gov is the U.S. government's official web portal to all federal, state and local government web resources and services.